Green Oak Township, Michigan
Current Conditions -  °F | °C
As of 9:15 AM on Monday 26 Jan 2015 (Local Time) from KOZW Reporting Station
Clear Clear  
Wind Chill:   Ceiling: Unl
Heat Index: 10°   Visibility: 10mi
Dew Point:   Wind: 5mph
Humidity: 91%   Direction: 30°NNE
Pressure: 29.94"   Gusts: NA
Location:  42.5333°N, 83.7735°W
Report Text: KOZW 261415Z AUTO 03004KT 10SM CLR M12/M13 A2994 RMK AO2 T11231135
Loading
Personal Weather Stations






























Interactive Weather Map New forecast layout! Learn more

10-Day Weather Forecast

Advertisements
Track Severe Weather on mobile